Time;durP1;ratioP1;P1;durP2;ratioP2;P2;SDS_P1;SDS_P2;PMS_P1;PMS_P2;Temp;Humidity;BMP_temperature;BMP_pressure;BME280_temperature;BME280_humidity;BME280_pressure;Samples;Min_cycle;Max_cycle;Signal;HPM_P1;HPM_P2
2024/03/25 00:01:59;;;;;;;12.15;4.82;;;4.40;99.90;;;;;;493842;241;27576;-72
2024/03/25 00:04:00;;;;;;;8.23;4.82;;;4.40;99.90;;;;;;493929;241;27550;-72
2024/03/25 00:06:01;;;;;;;13.02;4.80;;;4.40;99.90;;;;;;494006;237;27563;-74
2024/03/25 00:08:03;;;;;;;7.00;4.62;;;4.40;99.90;;;;;;493975;241;27591;-71
2024/03/25 00:10:06;;;;;;;10.60;4.57;;;4.40;99.90;;;;;;493977;238;27951;-73
2024/03/25 00:12:05;;;;;;;6.37;4.30;;;4.40;99.90;;;;;;493841;241;27926;-72
2024/03/25 00:14:06;;;;;;;6.10;4.40;;;4.40;99.90;;;;;;493975;241;27551;-72
2024/03/25 00:16:08;;;;;;;8.23;4.20;;;4.40;99.90;;;;;;493962;241;27542;-75
2024/03/25 00:18:11;;;;;;;7.75;4.47;;;4.30;99.90;;;;;;493941;237;27474;-71
2024/03/25 00:20:10;;;;;;;7.32;4.15;;;4.30;99.90;;;;;;493781;241;27530;-74
2024/03/25 00:22:11;;;;;;;9.13;4.53;;;4.30;99.90;;;;;;493953;241;27499;-76
2024/03/25 00:24:13;;;;;;;9.93;4.75;;;4.30;99.90;;;;;;493984;241;27487;-73
2024/03/25 00:26:14;;;;;;;9.05;5.22;;;4.30;99.90;;;;;;493934;241;27643;-71
2024/03/25 00:28:15;;;;;;;7.45;4.28;;;4.30;99.90;;;;;;493938;241;27967;-71
2024/03/25 00:30:16;;;;;;;8.80;4.53;;;4.30;99.90;;;;;;493882;241;27993;-71
2024/03/25 00:32:18;;;;;;;7.03;4.10;;;4.20;99.90;;;;;;493954;241;28004;-72
2024/03/25 00:34:19;;;;;;;7.15;3.92;;;4.30;99.90;;;;;;493940;241;27485;-71
2024/03/25 00:36:20;;;;;;;8.32;4.12;;;4.20;99.90;;;;;;493910;241;27509;-71
2024/03/25 00:38:21;;;;;;;6.75;4.05;;;4.10;99.90;;;;;;493943;241;27451;-71
2024/03/25 00:40:23;;;;;;;8.95;4.78;;;4.10;99.90;;;;;;493954;241;27512;-72
2024/03/25 00:42:24;;;;;;;9.07;4.40;;;4.10;99.90;;;;;;493955;241;27525;-72
2024/03/25 00:44:25;;;;;;;7.20;4.25;;;4.10;99.90;;;;;;493920;237;27603;-71
2024/03/25 00:46:26;;;;;;;9.90;4.75;;;4.00;99.90;;;;;;493898;241;27532;-71
2024/03/25 00:48:28;;;;;;;5.47;4.32;;;4.00;99.90;;;;;;493753;237;28684;-71
2024/03/25 00:50:29;;;;;;;5.97;4.03;;;4.00;99.90;;;;;;493947;241;27934;-71
2024/03/25 00:52:30;;;;;;;6.30;3.70;;;3.90;99.90;;;;;;493950;241;28029;-72
2024/03/25 00:54:32;;;;;;;4.95;3.90;;;3.90;99.90;;;;;;493905;241;27553;-71
2024/03/25 00:56:33;;;;;;;7.85;4.43;;;3.80;99.90;;;;;;493891;241;27507;-71
2024/03/25 00:58:34;;;;;;;5.93;4.37;;;3.80;99.90;;;;;;493921;241;27510;-70
2024/03/25 01:00:35;;;;;;;6.55;4.80;;;3.80;99.90;;;;;;493944;241;27476;-71
2024/03/25 01:02:37;;;;;;;9.32;5.35;;;3.70;99.90;;;;;;493936;241;27514;-72
2024/03/25 01:04:38;;;;;;;5.30;3.97;;;3.70;99.90;;;;;;493892;241;27528;-71
2024/03/25 01:06:39;;;;;;;9.07;4.25;;;3.70;99.90;;;;;;493911;241;27501;-71
2024/03/25 01:08:40;;;;;;;7.40;4.37;;;3.70;99.90;;;;;;493952;241;27988;-72
2024/03/25 01:10:42;;;;;;;7.18;4.30;;;3.60;99.90;;;;;;493936;241;27918;-71
2024/03/25 01:12:43;;;;;;;9.45;5.25;;;3.60;99.90;;;;;;493905;241;27996;-71
2024/03/25 01:14:44;;;;;;;8.45;4.50;;;3.60;99.90;;;;;;493896;237;27618;-71
2024/03/25 01:16:45;;;;;;;4.78;4.15;;;3.70;99.90;;;;;;493949;241;27482;-71
2024/03/25 01:18:47;;;;;;;6.03;4.37;;;3.60;99.90;;;;;;493952;241;27588;-72
2024/03/25 01:20:49;;;;;;;11.88;6.20;;;3.60;99.90;;;;;;493909;241;27629;-71
2024/03/25 01:22:49;;;;;;;5.05;4.55;;;3.60;99.90;;;;;;493812;241;27574;-71
2024/03/25 01:24:50;;;;;;;4.85;4.18;;;3.60;99.90;;;;;;493912;241;27600;-71
2024/03/25 01:26:52;;;;;;;8.52;4.47;;;3.70;99.90;;;;;;493945;241;27463;-71
2024/03/25 01:28:53;;;;;;;6.60;3.83;;;3.70;99.90;;;;;;493926;237;27528;-71
2024/03/25 01:30:54;;;;;;;7.80;4.75;;;3.60;99.90;;;;;;493927;241;27955;-71
2024/03/25 01:32:55;;;;;;;7.20;4.30;;;3.60;99.90;;;;;;493895;241;27969;-71
2024/03/25 01:34:57;;;;;;;9.85;4.90;;;3.60;99.90;;;;;;493946;241;28098;-72
2024/03/25 01:36:58;;;;;;;10.65;5.87;;;3.60;99.90;;;;;;493886;241;27486;-71
2024/03/25 01:38:59;;;;;;;8.95;5.30;;;3.60;99.90;;;;;;493918;241;27530;-72
2024/03/25 01:41:00;;;;;;;8.55;4.87;;;3.60;99.90;;;;;;493905;237;27443;-71
2024/03/25 01:43:02;;;;;;;5.82;4.25;;;3.70;99.90;;;;;;493932;241;27515;-71
2024/03/25 01:45:03;;;;;;;12.18;4.97;;;3.60;99.90;;;;;;493914;241;27607;-72
2024/03/25 01:47:04;;;;;;;8.30;5.37;;;3.60;99.90;;;;;;493910;241;27521;-71
2024/03/25 01:49:05;;;;;;;8.55;5.22;;;3.60;99.90;;;;;;493904;241;27544;-72
2024/03/25 01:51:07;;;;;;;7.60;4.62;;;3.60;99.90;;;;;;493898;241;27464;-71
2024/03/25 01:53:08;;;;;;;7.85;4.25;;;3.60;99.90;;;;;;493944;241;28026;-71
2024/03/25 01:55:09;;;;;;;5.90;4.30;;;3.60;99.90;;;;;;493928;241;27997;-71
2024/03/25 01:57:10;;;;;;;9.68;4.50;;;3.70;99.90;;;;;;493896;241;27932;-71
2024/03/25 01:59:12;;;;;;;6.15;4.30;;;3.70;99.90;;;;;;493905;241;27521;-71
2024/03/25 02:01:16;;;;;;;7.95;5.25;;;3.70;99.90;;;;;;493957;241;27537;-71
2024/03/25 02:03:14;;;;;;;7.20;4.43;;;3.60;99.90;;;;;;493727;241;27578;-72
2024/03/25 02:05:15;;;;;;;6.20;4.60;;;3.60;99.90;;;;;;493925;241;27619;-71
2024/03/25 02:07:17;;;;;;;7.70;4.65;;;3.60;99.90;;;;;;493873;241;27560;-71
2024/03/25 02:09:18;;;;;;;9.45;4.68;;;3.60;99.90;;;;;;493894;237;27518;-70
2024/03/25 02:11:19;;;;;;;9.32;5.20;;;3.50;99.90;;;;;;493948;241;27875;-73
2024/03/25 02:13:21;;;;;;;7.78;4.70;;;3.50;99.90;;;;;;493955;237;27471;-71
2024/03/25 02:15:22;;;;;;;8.20;5.60;;;3.50;99.90;;;;;;493896;237;27605;-71
2024/03/25 02:17:23;;;;;;;6.37;4.20;;;3.50;99.90;;;;;;493879;237;27555;-71
2024/03/25 02:19:24;;;;;;;6.50;4.50;;;3.50;99.90;;;;;;493952;241;27498;-71
2024/03/25 02:21:25;;;;;;;8.80;5.15;;;3.40;99.90;;;;;;493921;241;27628;-72
2024/03/25 02:23:27;;;;;;;5.53;4.87;;;3.40;99.90;;;;;;493914;237;27574;-71
2024/03/25 02:25:28;;;;;;;9.18;5.05;;;3.40;99.90;;;;;;493895;241;27646;-71
2024/03/25 02:27:30;;;;;;;7.50;4.50;;;3.30;99.90;;;;;;493941;241;27584;-71
2024/03/25 02:29:30;;;;;;;13.75;6.10;;;3.30;99.90;;;;;;493866;241;27560;-70
2024/03/25 02:31:32;;;;;;;8.10;5.18;;;3.20;99.90;;;;;;493926;237;28009;-71
2024/03/25 02:33:33;;;;;;;7.68;4.28;;;3.20;99.90;;;;;;493907;241;27913;-70
2024/03/25 02:35:34;;;;;;;6.85;4.20;;;3.20;99.90;;;;;;493922;241;27989;-72
2024/03/25 02:37:35;;;;;;;6.78;4.62;;;3.10;99.90;;;;;;493982;241;27508;-72
2024/03/25 02:39:37;;;;;;;7.90;5.00;;;3.10;99.90;;;;;;493979;241;27471;-71
2024/03/25 02:41:38;;;;;;;7.43;4.78;;;3.10;99.90;;;;;;493920;241;27590;-71
2024/03/25 02:43:39;;;;;;;9.80;5.20;;;3.00;99.90;;;;;;493870;241;27504;-70
2024/03/25 02:45:40;;;;;;;7.60;5.53;;;3.00;99.90;;;;;;493873;237;27502;-71
2024/03/25 02:47:42;;;;;;;10.40;4.97;;;3.00;99.90;;;;;;493942;241;27556;-73
2024/03/25 02:49:43;;;;;;;7.57;4.75;;;3.00;99.90;;;;;;493946;241;27569;-71
2024/03/25 02:51:44;;;;;;;7.07;4.90;;;3.00;99.90;;;;;;493790;241;27510;-71
2024/03/25 02:53:46;;;;;;;5.15;4.50;;;3.00;99.90;;;;;;493908;241;27465;-71
2024/03/25 02:55:47;;;;;;;10.02;4.68;;;3.00;99.90;;;;;;493966;241;27975;-71
2024/03/25 02:57:48;;;;;;;10.63;5.12;;;3.00;99.90;;;;;;493934;241;27998;-71
2024/03/25 02:59:49;;;;;;;11.45;5.72;;;2.90;99.90;;;;;;493949;241;27950;-71
2024/03/25 03:01:50;;;;;;;7.28;5.37;;;2.90;99.90;;;;;;493927;241;27621;-71
2024/03/25 03:03:52;;;;;;;9.00;5.43;;;2.90;99.90;;;;;;493967;241;27662;-70
2024/03/25 03:05:53;;;;;;;12.63;5.20;;;2.80;99.90;;;;;;493942;241;27481;-72
2024/03/25 03:07:54;;;;;;;7.37;4.57;;;2.80;99.90;;;;;;493933;237;27510;-72
2024/03/25 03:09:55;;;;;;;6.65;5.43;;;2.70;99.90;;;;;;493909;241;27462;-71
2024/03/25 03:11:57;;;;;;;8.15;5.50;;;2.60;99.90;;;;;;493911;241;27627;-71
2024/03/25 03:13:58;;;;;;;10.90;5.90;;;2.60;99.90;;;;;;493985;241;27854;-72
2024/03/25 03:15:59;;;;;;;8.80;6.07;;;2.50;99.90;;;;;;493950;241;27552;-71
2024/03/25 03:18:00;;;;;;;12.82;6.00;;;2.50;99.90;;;;;;493946;241;27619;-71
2024/03/25 03:20:02;;;;;;;9.07;5.37;;;2.50;99.90;;;;;;493925;241;27907;-71
2024/03/25 03:22:03;;;;;;;9.23;6.12;;;2.50;99.90;;;;;;493980;241;27923;-71
2024/03/25 03:24:04;;;;;;;10.25;5.93;;;2.50;99.90;;;;;;493959;241;28003;-72
2024/03/25 03:26:05;;;;;;;9.63;5.65;;;2.50;99.90;;;;;;493926;241;27934;-71
2024/03/25 03:28:07;;;;;;;11.07;6.37;;;2.40;99.90;;;;;;493890;241;27532;-71
2024/03/25 03:30:09;;;;;;;8.68;5.95;;;2.40;99.90;;;;;;493920;241;27601;-71
2024/03/25 03:32:09;;;;;;;9.57;5.57;;;2.40;99.90;;;;;;493919;241;27548;-71
2024/03/25 03:34:10;;;;;;;7.62;4.85;;;2.40;99.90;;;;;;493934;241;27579;-72
2024/03/25 03:36:12;;;;;;;7.10;5.57;;;2.30;99.90;;;;;;493863;237;27469;-71
2024/03/25 03:38:13;;;;;;;10.85;6.35;;;2.30;99.90;;;;;;493903;241;27556;-71
2024/03/25 03:40:14;;;;;;;7.35;5.40;;;2.30;99.90;;;;;;493968;241;27850;-72
2024/03/25 03:42:15;;;;;;;11.80;6.22;;;2.30;99.90;;;;;;493933;241;27489;-71
2024/03/25 03:44:17;;;;;;;8.52;4.60;;;2.30;99.90;;;;;;493922;241;27619;-71
2024/03/25 03:46:18;;;;;;;8.02;5.85;;;2.30;99.90;;;;;;493892;241;28010;-71
2024/03/25 03:48:19;;;;;;;12.75;6.10;;;2.30;99.90;;;;;;493937;241;28054;-71
2024/03/25 03:50:21;;;;;;;7.07;4.93;;;2.20;99.90;;;;;;493939;241;28061;-72
2024/03/25 03:52:22;;;;;;;9.23;5.47;;;2.20;99.90;;;;;;493938;241;27493;-70
2024/03/25 03:54:23;;;;;;;12.18;7.45;;;2.20;99.90;;;;;;493924;241;27524;-71
2024/03/25 03:56:24;;;;;;;9.82;6.57;;;2.10;99.90;;;;;;493879;241;27581;-71
2024/03/25 03:58:25;;;;;;;11.48;6.40;;;2.10;99.90;;;;;;493929;241;27485;-71
2024/03/25 04:00:27;;;;;;;9.88;5.70;;;2.10;99.90;;;;;;493948;241;27524;-72
2024/03/25 04:02:28;;;;;;;9.25;5.93;;;2.10;99.90;;;;;;493929;241;27557;-71
2024/03/25 04:04:30;;;;;;;9.00;6.43;;;2.10;99.90;;;;;;493911;241;27502;-71
2024/03/25 04:06:30;;;;;;;9.15;6.53;;;2.00;99.90;;;;;;493958;238;27593;-72
2024/03/25 04:08:32;;;;;;;14.10;7.75;;;2.10;99.90;;;;;;493955;241;27489;-71
2024/03/25 04:10:33;;;;;;;10.40;6.60;;;2.10;99.90;;;;;;493910;241;27985;-72
2024/03/25 04:12:35;;;;;;;17.48;8.30;;;2.10;99.90;;;;;;493929;241;27980;-71
2024/03/25 04:14:36;;;;;;;10.98;7.55;;;2.20;99.90;;;;;;493910;241;29073;-71
2024/03/25 04:16:37;;;;;;;10.55;6.82;;;2.20;99.90;;;;;;493952;241;27636;-71
2024/03/25 04:18:38;;;;;;;19.25;8.45;;;2.30;99.90;;;;;;493922;241;27481;-71
2024/03/25 04:20:39;;;;;;;12.43;8.18;;;2.40;99.90;;;;;;493873;241;27584;-71
2024/03/25 04:22:41;;;;;;;19.60;9.48;;;2.50;99.90;;;;;;493915;241;27613;-71
2024/03/25 04:24:42;;;;;;;15.40;8.93;;;2.60;99.90;;;;;;493912;241;27604;-71
2024/03/25 04:26:43;;;;;;;15.13;8.40;;;2.70;99.90;;;;;;493950;241;27557;-72
2024/03/25 04:28:44;;;;;;;11.65;8.00;;;2.70;99.90;;;;;;493936;241;27502;-71
2024/03/25 04:30:46;;;;;;;14.75;9.15;;;2.80;99.90;;;;;;493912;241;28055;-71
2024/03/25 04:32:47;;;;;;;17.42;8.98;;;2.80;99.90;;;;;;493910;241;28715;-71
2024/03/25 04:34:48;;;;;;;15.90;9.68;;;2.90;99.90;;;;;;493938;241;27921;-71
2024/03/25 04:36:49;;;;;;;30.88;12.50;;;2.90;99.90;;;;;;493952;241;27525;-71
2024/03/25 04:38:51;;;;;;;20.67;9.75;;;2.90;99.90;;;;;;493894;241;27470;-71
2024/03/25 04:40:52;;;;;;;13.32;9.25;;;3.00;99.90;;;;;;493882;241;27563;-71
2024/03/25 04:42:53;;;;;;;15.93;9.52;;;3.00;99.90;;;;;;493924;241;27988;-73
2024/03/25 04:44:54;;;;;;;13.88;8.27;;;3.00;99.90;;;;;;493930;241;27601;-71
2024/03/25 04:46:56;;;;;;;20.42;10.90;;;3.00;99.90;;;;;;493901;241;27616;-71
2024/03/25 04:48:57;;;;;;;20.58;11.65;;;3.10;99.90;;;;;;493769;241;27453;-71
2024/03/25 04:50:58;;;;;;;22.65;10.40;;;3.10;99.90;;;;;;493931;241;27515;-72
2024/03/25 04:52:59;;;;;;;20.50;11.20;;;3.10;99.90;;;;;;493955;241;27582;-72
2024/03/25 04:55:01;;;;;;;17.90;10.95;;;3.10;99.90;;;;;;493914;241;27978;-70
2024/03/25 04:57:02;;;;;;;12.37;8.95;;;3.20;99.90;;;;;;493904;241;27990;-71
2024/03/25 04:59:03;;;;;;;14.38;9.30;;;3.20;99.90;;;;;;493916;241;27041;-71
2024/03/25 05:01:04;;;;;;;22.37;11.73;;;3.20;99.90;;;;;;493966;241;27494;-72
2024/03/25 05:03:06;;;;;;;14.68;9.57;;;3.30;99.90;;;;;;493937;237;27520;-72
2024/03/25 05:05:07;;;;;;;17.65;10.90;;;3.30;99.90;;;;;;493904;237;27470;-71
2024/03/25 05:07:08;;;;;;;17.62;10.63;;;3.30;99.90;;;;;;493896;241;27630;-71
2024/03/25 05:09:10;;;;;;;15.98;10.07;;;3.30;99.90;;;;;;493929;241;27528;-72
2024/03/25 05:11:11;;;;;;;15.13;9.60;;;3.30;99.90;;;;;;493944;241;27942;-71
2024/03/25 05:13:12;;;;;;;16.73;9.82;;;3.30;99.90;;;;;;493920;241;27985;-71
2024/03/25 05:15:14;;;;;;;19.52;10.85;;;3.40;99.90;;;;;;493899;241;29028;-71
2024/03/25 05:17:14;;;;;;;14.70;9.25;;;3.40;99.90;;;;;;493919;241;27576;-71
2024/03/25 05:19:16;;;;;;;15.50;10.00;;;3.40;99.90;;;;;;493947;241;27605;-73
2024/03/25 05:21:17;;;;;;;15.10;10.90;;;3.40;99.90;;;;;;493933;241;27469;-71
2024/03/25 05:23:18;;;;;;;13.98;9.98;;;3.40;99.90;;;;;;493910;241;27635;-71
2024/03/25 05:25:24;;;;;;;17.52;10.82;;;3.40;99.90;;;;;;493938;237;27465;-70
2024/03/25 05:27:21;;;;;;;21.60;12.30;;;3.40;99.90;;;;;;493587;241;27478;-71
2024/03/25 05:29:22;;;;;;;20.67;12.43;;;3.40;99.90;;;;;;493939;241;28031;-71
2024/03/25 05:31:23;;;;;;;18.55;11.73;;;3.40;99.90;;;;;;493945;241;28032;-70
2024/03/25 05:33:25;;;;;;;20.17;11.70;;;3.40;99.90;;;;;;493892;241;27605;-71
2024/03/25 05:35:26;;;;;;;20.35;12.23;;;3.40;99.90;;;;;;493993;241;27532;-72
2024/03/25 05:37:27;;;;;;;17.70;11.57;;;3.50;99.90;;;;;;493984;241;27469;-71
2024/03/25 05:39:28;;;;;;;21.60;13.13;;;3.50;99.90;;;;;;493806;241;27530;-72
2024/03/25 05:41:30;;;;;;;25.02;12.80;;;3.50;99.90;;;;;;493938;241;27536;-71
2024/03/25 05:43:31;;;;;;;17.10;11.75;;;3.40;99.90;;;;;;493950;237;27934;-71
2024/03/25 05:45:32;;;;;;;17.67;11.02;;;3.40;99.90;;;;;;493964;241;28125;-72
2024/03/25 05:47:33;;;;;;;20.73;11.60;;;3.40;99.90;;;;;;493941;241;27484;-71
2024/03/25 05:49:35;;;;;;;20.85;12.45;;;3.50;99.90;;;;;;493931;241;27510;-70
2024/03/25 05:51:36;;;;;;;21.15;12.70;;;3.50;99.90;;;;;;493954;241;27497;-71
2024/03/25 05:53:38;;;;;;;23.08;12.43;;;3.60;99.90;;;;;;493973;241;27469;-71
2024/03/25 05:55:38;;;;;;;17.48;11.57;;;3.60;99.90;;;;;;493831;241;27518;-72
2024/03/25 05:57:40;;;;;;;20.20;12.27;;;3.60;99.90;;;;;;493931;241;27921;-71
2024/03/25 05:59:41;;;;;;;17.25;11.30;;;3.70;99.90;;;;;;493922;241;28007;-71
2024/03/25 06:01:42;;;;;;;18.83;11.82;;;3.70;99.90;;;;;;493978;241;27518;-72
2024/03/25 06:03:43;;;;;;;15.45;10.93;;;3.70;99.90;;;;;;493936;241;27580;-71
2024/03/25 06:05:45;;;;;;;22.08;12.68;;;3.70;99.90;;;;;;493960;241;27553;-71
2024/03/25 06:07:46;;;;;;;25.05;13.32;;;3.80;99.90;;;;;;493871;241;27489;-71
2024/03/25 06:09:47;;;;;;;22.90;13.25;;;3.70;99.90;;;;;;493942;241;27915;-71
2024/03/25 06:11:48;;;;;;;23.00;14.27;;;3.70;99.90;;;;;;493938;241;28004;-71
2024/03/25 06:13:50;;;;;;;22.55;13.32;;;3.70;99.90;;;;;;493925;241;27463;-71
2024/03/25 06:15:51;;;;;;;18.77;11.55;;;3.60;99.90;;;;;;493894;241;27611;-74
2024/03/25 06:17:52;;;;;;;17.83;11.70;;;3.70;99.90;;;;;;493922;241;27591;-71
2024/03/25 06:19:53;;;;;;;19.70;12.48;;;3.70;99.90;;;;;;493953;238;27485;-70
2024/03/25 06:21:55;;;;;;;22.10;13.05;;;3.80;99.90;;;;;;493905;241;27540;-72
2024/03/25 06:23:56;;;;;;;20.52;14.07;;;3.80;99.90;;;;;;493859;241;28002;-71
2024/03/25 06:25:57;;;;;;;19.55;12.70;;;3.70;99.90;;;;;;493899;241;28006;-70
2024/03/25 06:27:59;;;;;;;22.08;12.40;;;3.70;99.90;;;;;;493955;241;27659;-72
2024/03/25 06:34:14;;;;;;;19.23;12.63;;;3.70;99.90;;;;;;493914;241;27552;-71
2024/03/25 06:34:23;;;;;;;21.05;13.15;;;3.90;99.90;;;;;;493928;241;27545;-73
2024/03/25 06:36:25;;;;;;;20.75;13.43;;;4.00;99.90;;;;;;493946;241;27604;-72
2024/03/25 06:38:26;;;;;;;23.08;13.20;;;4.00;99.90;;;;;;493946;241;27937;-71
2024/03/25 06:40:27;;;;;;;21.65;13.52;;;4.10;99.90;;;;;;493930;241;28048;-71
2024/03/25 06:42:28;;;;;;;22.20;14.30;;;4.00;99.90;;;;;;493899;241;27479;-73
2024/03/25 06:44:30;;;;;;;23.92;13.27;;;4.10;99.90;;;;;;493896;241;27502;-73
2024/03/25 06:46:31;;;;;;;24.20;14.70;;;4.20;99.90;;;;;;493967;241;27542;-74
2024/03/25 06:48:32;;;;;;;20.27;13.25;;;4.20;99.90;;;;;;493929;241;27563;-71
2024/03/25 06:50:33;;;;;;;21.73;12.98;;;4.20;99.90;;;;;;493916;241;28026;-72
2024/03/25 06:52:35;;;;;;;24.50;12.93;;;4.20;99.90;;;;;;493871;241;28065;-71
2024/03/25 06:54:36;;;;;;;20.00;12.80;;;4.30;99.90;;;;;;493954;238;27510;-71
2024/03/25 06:56:37;;;;;;;28.25;14.20;;;4.40;99.90;;;;;;493936;241;27537;-71
2024/03/25 06:58:38;;;;;;;22.50;12.90;;;4.40;99.90;;;;;;493924;241;27457;-73
2024/03/25 07:00:40;;;;;;;22.15;12.45;;;4.40;99.90;;;;;;493883;241;27541;-71
2024/03/25 07:02:41;;;;;;;17.15;12.05;;;4.40;99.90;;;;;;493940;241;28120;-73
2024/03/25 07:04:42;;;;;;;34.80;14.80;;;4.50;99.90;;;;;;493945;241;27938;-71
2024/03/25 07:06:43;;;;;;;22.65;12.57;;;4.60;99.90;;;;;;493890;241;27517;-72
2024/03/25 07:08:47;;;;;;;19.58;12.23;;;4.40;99.90;;;;;;493847;241;27603;-70
2024/03/25 07:10:46;;;;;;;24.65;13.68;;;4.50;99.90;;;;;;493694;241;27513;-70
2024/03/25 07:12:47;;;;;;;23.48;11.65;;;4.60;99.90;;;;;;493977;241;27515;-72
2024/03/25 07:14:49;;;;;;;19.98;12.02;;;4.70;99.90;;;;;;493915;241;27984;-71
2024/03/25 07:16:50;;;;;;;19.92;12.07;;;4.80;99.90;;;;;;493875;241;28100;-71
2024/03/25 07:18:51;;;;;;;20.67;12.82;;;4.80;99.90;;;;;;493845;241;27474;-71
2024/03/25 07:20:52;;;;;;;18.33;11.93;;;4.90;99.90;;;;;;493928;241;27496;-72
2024/03/25 07:22:56;;;;;;;21.58;12.30;;;5.00;99.90;;;;;;493892;241;27596;-74
2024/03/25 07:24:58;;;;;;;22.52;11.20;;;5.00;99.90;;;;;;493850;241;27987;-71
2024/03/25 07:26:59;;;;;;;24.00;12.35;;;5.10;99.90;;;;;;493835;241;29040;-71
2024/03/25 07:29:00;;;;;;;17.05;11.48;;;5.20;99.90;;;;;;493864;241;27517;-74
2024/03/25 07:31:02;;;;;;;18.77;11.35;;;5.30;99.90;;;;;;493946;241;27553;-75
2024/03/25 07:33:03;;;;;;;19.05;11.07;;;5.40;99.90;;;;;;493889;241;27505;-73
2024/03/25 07:35:04;;;;;;;16.30;10.68;;;5.40;99.90;;;;;;493899;241;27992;-73
2024/03/25 07:37:05;;;;;;;25.30;13.90;;;5.30;99.90;;;;;;493881;241;28072;-73
2024/03/25 07:39:07;;;;;;;20.35;11.50;;;5.30;99.90;;;;;;493944;241;27493;-73
2024/03/25 07:41:09;;;;;;;20.08;11.98;;;5.40;99.90;;;;;;493904;241;27502;-73
2024/03/25 07:43:09;;;;;;;21.37;11.95;;;5.60;99.90;;;;;;493901;241;27489;-72
2024/03/25 07:45:10;;;;;;;20.70;12.05;;;5.50;99.90;;;;;;493913;241;27937;-73
2024/03/25 07:47:12;;;;;;;22.00;12.75;;;5.50;99.90;;;;;;493972;241;28184;-74
2024/03/25 07:49:13;;;;;;;17.98;11.43;;;5.60;99.90;;;;;;493973;241;27489;-74
2024/03/25 07:51:14;;;;;;;19.75;11.85;;;5.60;99.90;;;;;;493936;241;27513;-71
2024/03/25 07:53:15;;;;;;;18.37;12.02;;;5.60;99.90;;;;;;493912;241;27529;-73
2024/03/25 07:55:17;;;;;;;17.20;11.23;;;5.70;99.90;;;;;;493959;241;27949;-73
2024/03/25 07:57:19;;;;;;;18.42;12.00;;;5.90;99.90;;;;;;493969;241;29351;-74
2024/03/25 07:59:19;;;;;;;15.18;11.35;;;5.90;99.90;;;;;;493919;241;27466;-73
2024/03/25 08:01:20;;;;;;;20.70;11.98;;;6.00;99.90;;;;;;493955;241;27509;-74
2024/03/25 08:03:23;;;;;;;22.52;12.73;;;6.00;99.90;;;;;;493942;241;27590;-72
2024/03/25 08:05:23;;;;;;;19.93;11.53;;;6.00;99.90;;;;;;493910;241;27908;-73
2024/03/25 08:07:24;;;;;;;16.15;10.95;;;5.90;99.90;;;;;;493964;241;29390;-74
2024/03/25 08:09:26;;;;;;;17.83;12.30;;;5.90;99.90;;;;;;493937;237;27527;-73
2024/03/25 08:11:27;;;;;;;18.77;12.73;;;6.00;99.90;;;;;;493922;241;27543;-73
2024/03/25 08:13:28;;;;;;;21.90;12.10;;;6.10;99.90;;;;;;493757;241;27612;-73
2024/03/25 08:15:29;;;;;;;18.10;10.93;;;6.20;99.90;;;;;;493957;241;28081;-72
2024/03/25 08:17:31;;;;;;;18.37;12.90;;;6.30;99.90;;;;;;493950;241;28474;-74
2024/03/25 08:19:32;;;;;;;16.87;11.70;;;6.40;99.90;;;;;;493924;241;28848;-73
2024/03/25 08:21:33;;;;;;;15.57;10.90;;;6.60;99.90;;;;;;493979;241;28845;-74
2024/03/25 08:23:34;;;;;;;11.97;9.00;;;6.70;99.90;;;;;;493970;241;28877;-74
2024/03/25 08:25:36;;;;;;;18.30;10.23;;;6.80;99.90;;;;;;493934;241;28112;-74
2024/03/25 08:27:37;;;;;;;13.30;9.37;;;6.80;99.90;;;;;;493935;241;27758;-74
2024/03/25 08:29:38;;;;;;;18.63;11.20;;;6.70;99.90;;;;;;493958;241;27976;-74
2024/03/25 08:31:39;;;;;;;17.57;10.50;;;6.60;99.90;;;;;;493997;241;27719;-75
2024/03/25 08:33:41;;;;;;;14.37;9.53;;;6.50;99.90;;;;;;493945;241;27983;-74
2024/03/25 08:35:42;;;;;;;12.83;9.37;;;6.40;99.90;;;;;;493901;241;27830;-74
2024/03/25 08:37:43;;;;;;;13.83;8.97;;;6.40;99.90;;;;;;493909;241;28502;-74
2024/03/25 08:39:44;;;;;;;12.73;8.60;;;6.40;99.90;;;;;;493981;241;28504;-75
2024/03/25 08:41:46;;;;;;;16.33;8.63;;;6.40;99.90;;;;;;493960;241;28466;-74
2024/03/25 08:43:47;;;;;;;13.13;7.90;;;6.30;99.90;;;;;;493957;241;28009;-74
2024/03/25 08:45:48;;;;;;;14.90;9.47;;;6.40;99.90;;;;;;493937;241;27932;-74
2024/03/25 08:47:49;;;;;;;12.30;8.03;;;6.50;99.90;;;;;;493895;241;28883;-71
2024/03/25 08:49:51;;;;;;;11.50;8.77;;;6.50;99.90;;;;;;493959;241;28902;-75
2024/03/25 08:51:52;;;;;;;17.83;9.40;;;6.40;99.90;;;;;;493966;241;27939;-73
2024/03/25 08:53:53;;;;;;;15.70;8.60;;;6.40;99.90;;;;;;493929;241;27984;-74
2024/03/25 08:55:55;;;;;;;13.53;9.10;;;6.50;99.90;;;;;;493892;241;27694;-73
2024/03/25 08:57:58;;;;;;;11.77;8.20;;;6.60;99.90;;;;;;493956;241;27965;-74
2024/03/25 08:59:57;;;;;;;12.30;7.50;;;6.60;99.90;;;;;;493786;241;27632;-71
2024/03/25 09:01:58;;;;;;;13.20;7.90;;;6.60;99.90;;;;;;493960;237;28021;-71
2024/03/25 09:03:59;;;;;;;12.50;8.20;;;6.60;99.90;;;;;;493909;241;28285;-71
2024/03/25 09:06:01;;;;;;;8.17;6.40;;;6.70;99.90;;;;;;493971;241;29510;-74
2024/03/25 09:08:02;;;;;;;12.10;5.97;;;6.70;99.90;;;;;;493958;241;28099;-71
2024/03/25 09:12:04;;;;;;;9.47;5.90;;;6.80;99.90;;;;;;486439;241;28021;-74
2024/03/25 09:14:06;;;;;;;9.13;4.93;;;6.80;99.90;;;;;;493939;241;28153;-73
2024/03/25 09:16:07;;;;;;;6.73;4.33;;;6.90;99.90;;;;;;494017;241;27987;-76
2024/03/25 09:18:08;;;;;;;5.90;4.57;;;7.00;99.90;;;;;;493947;241;27700;-74
2024/03/25 09:20:20;;;;;;;5.83;4.33;;;7.00;99.90;;;;;;493954;241;27896;-74
2024/03/25 09:22:20;;;;;;;6.87;4.03;;;7.10;99.90;;;;;;493835;241;27649;-72
2024/03/25 09:24:21;;;;;;;4.60;3.40;;;7.10;99.90;;;;;;494009;241;27968;-72
2024/03/25 09:26:22;;;;;;;7.87;4.00;;;7.10;99.90;;;;;;494031;241;27925;-71
2024/03/25 09:28:23;;;;;;;6.93;4.33;;;7.20;99.90;;;;;;493950;237;28497;-74
2024/03/25 09:30:25;;;;;;;6.50;4.20;;;7.20;99.90;;;;;;493970;241;28472;-73
2024/03/25 09:32:26;;;;;;;8.63;4.33;;;7.20;99.90;;;;;;493946;237;28473;-74
2024/03/25 09:34:27;;;;;;;11.70;4.37;;;7.20;99.90;;;;;;493989;241;28198;-76
2024/03/25 09:36:28;;;;;;;6.00;3.90;;;7.20;99.90;;;;;;493956;241;28308;-74
2024/03/25 09:38:30;;;;;;;4.73;3.23;;;7.20;99.90;;;;;;493976;241;28458;-74
2024/03/25 09:40:31;;;;;;;5.73;3.60;;;7.20;99.90;;;;;;493958;241;28152;-73
2024/03/25 09:42:32;;;;;;;8.17;3.67;;;7.20;99.90;;;;;;493994;241;27497;-74
2024/03/25 09:44:33;;;;;;;5.73;3.90;;;7.20;99.90;;;;;;494028;241;28026;-75
2024/03/25 09:46:36;;;;;;;6.50;4.20;;;7.30;99.90;;;;;;494000;241;27672;-74
2024/03/25 09:48:36;;;;;;;8.90;4.00;;;7.40;99.90;;;;;;493857;241;27522;-74
2024/03/25 09:50:37;;;;;;;6.13;4.03;;;7.30;99.90;;;;;;493953;241;28033;-74
2024/03/25 09:52:38;;;;;;;3.50;2.83;;;7.40;99.90;;;;;;494027;241;27757;-74
2024/03/25 09:54:40;;;;;;;2.70;2.50;;;7.50;99.90;;;;;;494003;241;28133;-75
2024/03/25 09:56:41;;;;;;;4.73;3.33;;;7.50;99.90;;;;;;494005;241;27469;-73
2024/03/25 09:58:42;;;;;;;5.20;2.77;;;7.50;99.80;;;;;;493947;241;28073;-74
2024/03/25 10:00:43;;;;;;;9.07;3.23;;;7.50;99.90;;;;;;493949;241;27872;-74
2024/03/25 10:02:45;;;;;;;7.40;3.47;;;7.60;99.90;;;;;;493962;241;27943;-73
2024/03/25 10:04:46;;;;;;;5.50;3.00;;;7.70;99.90;;;;;;493955;241;28079;-74
2024/03/25 10:06:47;;;;;;;5.27;2.53;;;7.70;99.90;;;;;;493908;241;27837;-75
2024/03/25 10:08:48;;;;;;;6.17;3.37;;;7.60;99.90;;;;;;493874;241;28446;-74
2024/03/25 10:10:50;;;;;;;5.10;3.17;;;7.70;99.90;;;;;;493966;241;28506;-76
2024/03/25 10:12:51;;;;;;;6.83;3.33;;;7.70;99.90;;;;;;493926;241;28493;-73
2024/03/25 10:14:52;;;;;;;6.10;3.20;;;7.70;99.90;;;;;;493958;241;28470;-74
2024/03/25 10:16:53;;;;;;;4.63;3.70;;;7.80;98.60;;;;;;493876;241;28330;-76
2024/03/25 10:18:55;;;;;;;4.13;2.70;;;7.80;98.30;;;;;;493874;237;28060;-74
2024/03/25 10:20:56;;;;;;;3.70;3.20;;;7.80;98.80;;;;;;493973;237;28040;-76
2024/03/25 10:22:57;;;;;;;6.83;3.70;;;7.90;98.00;;;;;;493940;241;28114;-74
2024/03/25 10:24:58;;;;;;;6.30;2.97;;;7.90;97.70;;;;;;493875;241;27586;-73
2024/03/25 10:27:00;;;;;;;5.43;2.70;;;8.00;97.10;;;;;;493864;241;27828;-73
2024/03/25 10:29:01;;;;;;;3.30;2.70;;;8.10;97.40;;;;;;493955;237;27709;-73
2024/03/25 10:31:03;;;;;;;4.43;3.00;;;8.20;96.90;;;;;;493938;241;27988;-74
2024/03/25 10:33:03;;;;;;;6.20;2.93;;;8.30;97.20;;;;;;493872;241;27794;-73
2024/03/25 10:35:05;;;;;;;4.63;2.80;;;8.40;96.60;;;;;;493920;237;28077;-73
2024/03/25 10:37:06;;;;;;;3.13;2.37;;;8.50;95.20;;;;;;493935;241;28124;-73